Hong Kong Bridge — 9V8128 — position and weather

sailwx.info

Track history (hours):
 
Tides and Currents Weather Stations Pressure Air Temp Water Temp Dewpoint Dewpoint Depression Visibility Wind Speed Wind Dir Waves Ship Positions

Hong Kong Bridge

Last reported at 2018-Jun-12 13:45 UTC. Time now 2018-Jun-20 04:06 UTC.
Position N 34°58' E 129°00'.

Length 336 m; draft 11.4 m.

Type: Ship (hazmat cat D). MMSI: 565043000.

Date/timePositionNaut miles runAvg speedWind from/ knotsBaromVisibWave heightAir tempDewpointWater temp
2018-Jun-12 13:45N 34°58' E 129°00'406 8.9
2018-Jun-10 16:19N 31°06' E 122°23'414.1
2018-Jun-10 16:01N 31°06' E 122°18'714.1
2018-Jun-10 15:29N 31°10' E 122°11'714.5
2018-Jun-10 15:01N 31°14' E 122°04'713.1
2018-Jun-10 14:30N 31°15' E 121°57'20 0.8
2018-Jun-09 12:28N 31°23' E 121°35'4 8.3
2018-Jun-09 12:00N 31°21' E 121°39'1411.8
2018-Jun-09 10:48N 31°16' E 121°54'3 9.9
2018-Jun-09 10:30N 31°15' E 121°58'610.9
2018-Jun-09 10:00N 31°14' E 122°04'710.1
2018-Jun-09 09:19N 31°11' E 122°11'6 9.5
2018-Jun-09 08:44N 31°07' E 122°16'2 9.3
2018-Jun-09 08:29N 31°06' E 122°19'511.0
2018-Jun-09 08:01N 31°07' E 122°25'5 9.1
2018-Jun-09 07:30N 31°07' E 122°30'8 8.3
2018-Jun-09 06:33N 31°07' E 122°39'5 8.2
2018-Jun-09 05:55N 31°08' E 122°45'2 5.7
2018-Jun-09 05:30N 31°08' E 122°48'0 0.0
2018-Jun-08 01:22N 31°09' E 122°48'0 0.1
2018-Jun-08 00:46N 31°09' E 122°48'0 0.0
2018-Jun-08 00:22N 31°09' E 122°48'0 0.0
2018-Jun-07 20:55N 31°09' E 122°48'0 0.0
2018-Jun-07 20:28N 31°09' E 122°48'  
2018-Jun-04 06:33N 35°58' E 120°35'0 0.0
2018-Jun-04 06:30N 35°58' E 120°35'1410.4
2018-Jun-04 05:11N 36°01' E 120°18'314.5
2018-Jun-04 04:59N 36°02' E 120°14'2 1.5
2018-Jun-04 03:52N 36°01' E 120°13'0 0.0
2018-Jun-04 03:18N 36°01' E 120°13'0 0.0
2018-Jun-04 00:55N 36°01' E 120°13'0 0.0
2018-Jun-04 00:28N 36°01' E 120°13'  
Track history (hours):
 
Tides and Currents Weather Stations Pressure Air Temp Water Temp Dewpoint Dewpoint Depression Visibility Wind Speed Wind Dir Waves Ship Positions

Hong Kong Bridge

Last reported at 2018-Jun-12 13:45 UTC. Time now 2018-Jun-20 04:06 UTC.
Position N 34°58' E 129°00'.

Length 336 m; draft 11.4 m.

Type: Ship (hazmat cat D). MMSI: 565043000.

Date/timePositionNaut miles runAvg speedWind from/ knotsBaromVisibWave heightAir tempDewpointWater temp
2018-Jun-12 13:45N 34°58' E 129°00'406 8.9
2018-Jun-10 16:19N 31°06' E 122°23'414.1
2018-Jun-10 16:01N 31°06' E 122°18'714.1
2018-Jun-10 15:29N 31°10' E 122°11'714.5
2018-Jun-10 15:01N 31°14' E 122°04'713.1
2018-Jun-10 14:30N 31°15' E 121°57'20 0.8
2018-Jun-09 12:28N 31°23' E 121°35'4 8.3
2018-Jun-09 12:00N 31°21' E 121°39'1411.8
2018-Jun-09 10:48N 31°16' E 121°54'3 9.9
2018-Jun-09 10:30N 31°15' E 121°58'610.9
2018-Jun-09 10:00N 31°14' E 122°04'710.1
2018-Jun-09 09:19N 31°11' E 122°11'6 9.5
2018-Jun-09 08:44N 31°07' E 122°16'2 9.3
2018-Jun-09 08:29N 31°06' E 122°19'511.0
2018-Jun-09 08:01N 31°07' E 122°25'5 9.1
2018-Jun-09 07:30N 31°07' E 122°30'8 8.3
2018-Jun-09 06:33N 31°07' E 122°39'5 8.2
2018-Jun-09 05:55N 31°08' E 122°45'2 5.7
2018-Jun-09 05:30N 31°08' E 122°48'0 0.0
2018-Jun-08 01:22N 31°09' E 122°48'0 0.1
2018-Jun-08 00:46N 31°09' E 122°48'0 0.0
2018-Jun-08 00:22N 31°09' E 122°48'0 0.0
2018-Jun-07 20:55N 31°09' E 122°48'0 0.0
2018-Jun-07 20:28N 31°09' E 122°48'  
2018-Jun-04 06:33N 35°58' E 120°35'0 0.0
2018-Jun-04 06:30N 35°58' E 120°35'1410.4
2018-Jun-04 05:11N 36°01' E 120°18'314.5
2018-Jun-04 04:59N 36°02' E 120°14'2 1.5
2018-Jun-04 03:52N 36°01' E 120°13'0 0.0
2018-Jun-04 03:18N 36°01' E 120°13'0 0.0
2018-Jun-04 00:55N 36°01' E 120°13'0 0.0
2018-Jun-04 00:28N 36°01' E 120°13'  

Dump ship's entire track history